Terminal Aerodrome Forecast
Issued by NWS

Home | Current Version | Previous Version | Text Only | Print | Product List | Glossary On
Versions: 1 2 3 4 5 6 7 8 9 10 11 12
000
FTUS44 KJAN 200500
TAFGTR
TAF
KGTR 200529Z 2006/2106 04004KT P6SM BKN035 OVC060
     FM200800 36006KT 6SM BR BKN025 OVC050
     FM201700 01006KT P6SM SCT030 BKN050=

USA.gov is the U.S. government's official web portal to all federal, state and local government web resources and services.